Fence Lake, New Mexico
Current Conditions -  °F | °C
As of 6:54 PM on Saturday 22 Nov 2014 (Local Time) from KSJN Reporting Station
Clear Clear  
Wind Chill: 42°   Ceiling: Unl
Heat Index: 49°   Visibility: 10mi
Dew Point: 13°   Wind: 20mph
Humidity: 24%   Direction: 230°SW
Pressure: 29.98"   Gusts: 25mph
Location:  34.65°N, 108.68°W
Report Text: KSJN 230154Z AUTO 23017G22KT 10SM CLR 09/M11 A2998 RMK AO2 SLP139 T00941106
Loading
Personal Weather Stations






























Interactive Weather Map New forecast layout! Learn more

10-Day Weather Forecast

Advertisements
Track Severe Weather on mobile